createdAt,value
2019-01-29T00:00:11.543Z,3.30
2019-01-29T00:01:11.551Z,3.40
2019-01-29T00:02:11.561Z,3.30
2019-01-29T00:03:11.567Z,3.20
2019-01-29T00:04:11.580Z,3.70
2019-01-29T00:05:11.591Z,3.50
2019-01-29T00:06:11.613Z,3.00
2019-01-29T00:07:11.603Z,3.60
2019-01-29T00:08:11.611Z,3.10
2019-01-29T00:09:11.621Z,3.20
2019-01-29T00:10:11.643Z,3.60
2019-01-29T00:11:11.639Z,3.70
2019-01-29T00:12:11.645Z,3.40
2019-01-29T00:13:11.659Z,3.90
2019-01-29T00:14:11.663Z,3.60
2019-01-29T00:15:11.682Z,3.50
2019-01-29T00:16:11.680Z,3.50
2019-01-29T00:17:11.686Z,3.50
2019-01-29T00:18:11.698Z,4.00
2019-01-29T00:19:11.707Z,3.60
2019-01-29T00:20:11.715Z,4.00
2019-01-29T00:21:11.721Z,3.50
2019-01-29T00:22:11.727Z,3.90
2019-01-29T00:23:11.753Z,3.70
2019-01-29T00:24:11.745Z,4.20
2019-01-29T00:25:11.757Z,3.40
2019-01-29T00:26:11.762Z,3.70
2019-01-29T00:27:11.771Z,3.60
2019-01-29T00:28:11.789Z,3.40
2019-01-29T00:29:11.793Z,3.80
2019-01-29T00:30:11.802Z,3.90
2019-01-29T00:31:11.809Z,3.60
2019-01-29T00:32:11.821Z,3.70
2019-01-29T00:33:11.821Z,3.50
2019-01-29T00:34:11.838Z,3.80
2019-01-29T00:35:11.841Z,3.70
2019-01-29T00:36:11.885Z,3.80
2019-01-29T00:37:11.863Z,3.40
2019-01-29T00:38:11.867Z,3.60
2019-01-29T00:39:11.881Z,3.60
2019-01-29T00:40:11.881Z,3.80
2019-01-29T00:41:11.890Z,3.80
2019-01-29T00:42:11.903Z,4.00
2019-01-29T00:43:11.911Z,3.90
2019-01-29T00:44:11.918Z,3.90
2019-01-29T00:45:11.926Z,4.00
2019-01-29T00:46:11.933Z,4.50
2019-01-29T00:47:11.944Z,3.80
2019-01-29T00:48:11.962Z,3.80
2019-01-29T00:49:11.960Z,3.50
2019-01-29T00:50:11.967Z,3.90
2019-01-29T00:51:11.980Z,3.80
2019-01-29T00:52:11.985Z,3.80
2019-01-29T00:53:12.001Z,3.30
2019-01-29T00:54:12.004Z,3.50
2019-01-29T00:55:12.010Z,3.60
2019-01-29T00:56:12.021Z,3.50
2019-01-29T00:57:12.030Z,3.30
2019-01-29T00:58:12.365Z,4.50
2019-01-29T00:59:12.045Z,3.60
2019-01-29T01:00:12.054Z,3.70
2019-01-29T01:01:12.067Z,3.30
2019-01-29T01:02:12.067Z,3.20
2019-01-29T01:03:12.080Z,3.40
2019-01-29T01:04:12.088Z,3.10
2019-01-29T01:05:12.096Z,2.70
2019-01-29T01:06:12.106Z,3.00
2019-01-29T01:07:12.117Z,2.80
2019-01-29T01:08:12.120Z,3.00
2019-01-29T01:09:12.135Z,3.00
2019-01-29T01:10:12.141Z,3.20
2019-01-29T01:11:12.168Z,3.00
2019-01-29T01:12:12.163Z,2.90
2019-01-29T01:13:12.171Z,2.80
2019-01-29T01:14:12.175Z,3.00
2019-01-29T01:15:12.186Z,3.10
2019-01-29T01:16:12.191Z,3.00
2019-01-29T01:17:12.199Z,2.70
2019-01-29T01:18:12.205Z,3.00
2019-01-29T01:19:12.214Z,3.00
2019-01-29T01:20:12.227Z,2.80
2019-01-29T01:21:12.238Z,2.90
2019-01-29T01:22:12.245Z,3.10
2019-01-29T01:23:12.248Z,3.10
2019-01-29T01:24:12.267Z,3.00
2019-01-29T01:25:12.276Z,3.20
2019-01-29T01:26:12.275Z,2.90
2019-01-29T01:27:12.283Z,3.40
2019-01-29T01:28:12.293Z,3.40
2019-01-29T01:29:12.304Z,3.60
2019-01-29T01:30:12.309Z,3.10
2019-01-29T01:31:12.353Z,3.10
2019-01-29T01:32:12.378Z,3.20
2019-01-29T01:33:12.339Z,3.00
2019-01-29T01:34:12.345Z,2.70
2019-01-29T01:35:12.358Z,3.40
2019-01-29T01:36:12.367Z,3.10
2019-01-29T01:37:12.378Z,3.20
2019-01-29T01:38:12.380Z,3.20
2019-01-29T01:39:12.390Z,3.10
2019-01-29T01:40:12.399Z,4.00
2019-01-29T01:41:12.406Z,2.90
2019-01-29T01:42:12.417Z,2.90
2019-01-29T01:43:12.420Z,3.00
2019-01-29T01:44:12.446Z,2.80
2019-01-29T01:45:12.458Z,3.00
2019-01-29T01:46:12.449Z,3.20
2019-01-29T01:47:12.460Z,3.20
2019-01-29T01:48:12.494Z,3.40
2019-01-29T01:49:12.496Z,2.80
2019-01-29T01:50:12.494Z,3.40
2019-01-29T01:51:12.496Z,3.40
2019-01-29T01:52:12.500Z,3.10
2019-01-29T01:53:12.510Z,3.40
2019-01-29T01:54:12.518Z,3.30
2019-01-29T01:55:12.524Z,3.50
2019-01-29T01:56:12.637Z,3.20
2019-01-29T01:57:12.544Z,3.00
2019-01-29T01:58:12.550Z,3.30
2019-01-29T01:59:12.561Z,3.20
2019-01-29T02:00:12.573Z,3.20
2019-01-29T02:01:12.580Z,3.10
2019-01-29T02:02:12.588Z,3.10
2019-01-29T02:03:12.602Z,3.20
2019-01-29T02:04:12.605Z,3.30
2019-01-29T02:05:12.622Z,3.20
2019-01-29T02:06:12.620Z,3.10
2019-01-29T02:07:12.631Z,3.30
2019-01-29T02:08:12.641Z,3.30
2019-01-29T02:09:12.670Z,3.60
2019-01-29T02:10:12.659Z,3.40
2019-01-29T02:11:12.674Z,4.20
2019-01-29T02:12:12.675Z,3.80
2019-01-29T02:13:12.688Z,3.70
2019-01-29T02:14:12.695Z,3.70
2019-01-29T02:15:12.699Z,4.00
2019-01-29T02:16:12.706Z,3.90
2019-01-29T02:17:12.722Z,3.60
2019-01-29T02:18:12.724Z,4.10
2019-01-29T02:19:12.733Z,4.20
2019-01-29T02:20:12.746Z,3.70
2019-01-29T02:21:12.749Z,4.10
2019-01-29T02:22:12.759Z,3.70
2019-01-29T02:23:12.768Z,4.00
2019-01-29T02:24:12.777Z,3.90
2019-01-29T02:25:12.796Z,3.90
2019-01-29T02:26:12.790Z,3.70
2019-01-29T02:27:12.805Z,4.60
2019-01-29T02:28:12.807Z,3.90
2019-01-29T02:29:12.821Z,4.10
2019-01-29T02:30:12.829Z,3.80
2019-01-29T02:31:12.834Z,3.80
2019-01-29T02:32:12.845Z,3.90
2019-01-29T02:33:12.855Z,4.00
2019-01-29T02:34:12.860Z,3.80
2019-01-29T02:35:12.867Z,4.20
2019-01-29T02:36:12.878Z,3.50
2019-01-29T02:37:12.898Z,3.70
2019-01-29T02:38:12.898Z,3.70
2019-01-29T02:39:12.902Z,3.60
2019-01-29T02:40:12.914Z,4.00
2019-01-29T02:41:12.933Z,3.40
2019-01-29T02:42:12.960Z,3.70
2019-01-29T02:43:12.938Z,3.60
2019-01-29T02:44:12.947Z,4.40
2019-01-29T02:45:12.956Z,3.70
2019-01-29T02:46:12.965Z,3.30
2019-01-29T02:47:12.974Z,3.70
2019-01-29T02:48:12.979Z,3.60
2019-01-29T02:49:12.997Z,3.60
2019-01-29T02:50:13.000Z,3.70
2019-01-29T02:51:13.006Z,3.30
2019-01-29T02:52:13.015Z,3.70
2019-01-29T02:53:18.501Z,3.30
2019-01-29T02:54:13.040Z,2.90
2019-01-29T02:55:13.043Z,3.80
2019-01-29T02:56:13.052Z,3.50
2019-01-29T02:57:13.078Z,3.10
2019-01-29T02:58:13.070Z,3.40
2019-01-29T02:59:13.074Z,3.40
2019-01-29T03:00:13.088Z,3.30
2019-01-29T03:01:13.094Z,3.50
2019-01-29T03:02:13.106Z,3.30
2019-01-29T03:03:13.113Z,3.80
2019-01-29T03:04:13.120Z,3.30
2019-01-29T03:05:13.162Z,3.50
2019-01-29T03:06:13.135Z,3.50
2019-01-29T03:07:13.143Z,3.50
2019-01-29T03:08:13.149Z,3.60
2019-01-29T03:09:13.161Z,3.90
2019-01-29T03:10:13.170Z,3.80
2019-01-29T03:11:13.174Z,3.70
2019-01-29T03:12:13.202Z,3.80
2019-01-29T03:13:13.212Z,3.70
2019-01-29T03:14:13.207Z,4.10
2019-01-29T03:15:13.236Z,3.70
2019-01-29T03:16:13.222Z,3.80
2019-01-29T03:17:13.237Z,5.20
2019-01-29T03:18:13.239Z,4.30
2019-01-29T03:19:13.249Z,4.00
2019-01-29T03:20:13.255Z,3.60
2019-01-29T03:21:13.263Z,4.00
2019-01-29T03:22:13.276Z,3.60
2019-01-29T03:23:13.282Z,3.80
2019-01-29T03:24:13.314Z,4.30
2019-01-29T03:25:13.301Z,4.00
2019-01-29T03:26:13.307Z,4.10
2019-01-29T03:27:13.314Z,3.80
2019-01-29T03:28:13.324Z,4.50
2019-01-29T03:29:13.332Z,4.10
2019-01-29T03:30:13.360Z,3.80
2019-01-29T03:31:13.354Z,4.40
2019-01-29T03:32:13.374Z,4.10
2019-01-29T03:33:13.365Z,3.70
2019-01-29T03:34:13.383Z,4.20
2019-01-29T03:35:13.406Z,3.90
2019-01-29T03:36:13.395Z,4.00
2019-01-29T03:37:13.399Z,4.10
2019-01-29T03:38:13.433Z,4.20
2019-01-29T03:39:13.417Z,4.20
2019-01-29T03:40:13.424Z,4.10
2019-01-29T03:41:13.437Z,4.10
2019-01-29T03:42:13.449Z,4.00
2019-01-29T03:43:13.477Z,4.50
2019-01-29T03:44:13.462Z,4.50
2019-01-29T03:45:13.470Z,4.40
2019-01-29T03:46:13.475Z,4.60
2019-01-29T03:47:13.482Z,4.30
2019-01-29T03:48:13.495Z,4.50
2019-01-29T03:49:13.504Z,4.80
2019-01-29T03:50:13.525Z,5.00
2019-01-29T03:51:13.520Z,5.20
2019-01-29T03:52:13.527Z,4.70
2019-01-29T03:53:13.540Z,4.80
2019-01-29T03:54:13.546Z,5.30
2019-01-29T03:55:13.543Z,5.20
2019-01-29T03:56:13.551Z,5.60
2019-01-29T03:57:13.560Z,5.50
2019-01-29T03:58:13.571Z,5.50
2019-01-29T03:59:13.580Z,5.90
2019-01-29T04:00:13.585Z,5.70
2019-01-29T04:01:13.597Z,6.40
2019-01-29T04:02:13.604Z,5.80
2019-01-29T04:03:13.615Z,6.30
2019-01-29T04:04:13.622Z,6.40
2019-01-29T04:05:13.630Z,5.90
2019-01-29T04:06:13.637Z,6.30
2019-01-29T04:07:13.644Z,6.90
2019-01-29T04:08:13.657Z,6.80
2019-01-29T04:09:13.662Z,6.20
2019-01-29T04:10:15.577Z,6.90
2019-01-29T04:11:13.683Z,6.50
2019-01-29T04:12:13.687Z,7.20
2019-01-29T04:13:13.697Z,6.90
2019-01-29T04:14:13.703Z,7.70
2019-01-29T04:15:13.713Z,6.90
2019-01-29T04:16:13.724Z,7.20
2019-01-29T04:17:14.381Z,7.90
2019-01-29T04:18:14.049Z,7.90
2019-01-29T04:19:13.748Z,7.20
2019-01-29T04:20:13.755Z,7.80
2019-01-29T04:21:13.766Z,7.70
2019-01-29T04:22:13.769Z,8.40
2019-01-29T04:23:13.786Z,8.00
2019-01-29T04:24:13.795Z,8.40
2019-01-29T04:25:13.800Z,8.10
2019-01-29T04:26:13.804Z,8.60
2019-01-29T04:27:13.813Z,8.50
2019-01-29T04:28:13.827Z,8.70
2019-01-29T04:29:13.831Z,8.50
2019-01-29T04:30:13.838Z,8.90
2019-01-29T04:31:13.861Z,8.80
2019-01-29T04:32:13.859Z,8.30
2019-01-29T04:33:13.867Z,8.40
2019-01-29T04:34:13.876Z,8.50
2019-01-29T04:35:13.884Z,8.90
2019-01-29T04:36:13.891Z,8.20
2019-01-29T04:37:13.906Z,8.70
2019-01-29T04:38:13.907Z,8.30
2019-01-29T04:39:13.915Z,8.40
2019-01-29T04:40:13.932Z,8.70
2019-01-29T04:41:13.932Z,8.30
2019-01-29T04:42:13.942Z,8.70
2019-01-29T04:43:13.954Z,8.50
2019-01-29T04:44:13.959Z,8.50
2019-01-29T04:45:13.975Z,8.30
2019-01-29T04:46:13.976Z,8.30
2019-01-29T04:47:13.990Z,8.10
2019-01-29T04:48:13.995Z,9.10
2019-01-29T04:49:14.000Z,9.70
2019-01-29T04:50:14.011Z,8.70
2019-01-29T04:51:14.020Z,8.60
2019-01-29T04:52:14.026Z,8.20
2019-01-29T04:53:14.034Z,8.80
2019-01-29T04:54:14.042Z,8.20
2019-01-29T04:55:14.054Z,8.10
2019-01-29T04:56:14.063Z,8.60
2019-01-29T04:57:14.072Z,8.30
2019-01-29T04:58:14.075Z,8.40
2019-01-29T04:59:14.099Z,8.20
2019-01-29T05:00:14.096Z,9.90
2019-01-29T05:01:14.106Z,8.50
2019-01-29T05:02:14.109Z,8.40
2019-01-29T05:03:14.117Z,8.50
2019-01-29T05:04:14.130Z,8.30
2019-01-29T05:05:14.162Z,9.10
2019-01-29T05:06:14.176Z,9.50
2019-01-29T05:07:14.156Z,9.20
2019-01-29T05:08:14.172Z,9.20
2019-01-29T05:09:14.185Z,9.30
2019-01-29T05:10:14.246Z,8.70
2019-01-29T05:11:14.267Z,8.30
2019-01-29T05:12:14.195Z,8.40
2019-01-29T05:13:14.213Z,9.20
2019-01-29T05:14:14.212Z,8.80
2019-01-29T05:15:14.225Z,9.30
2019-01-29T05:16:14.263Z,9.00
2019-01-29T05:17:14.240Z,8.70
2019-01-29T05:18:14.250Z,8.80
2019-01-29T05:19:14.252Z,8.00
2019-01-29T05:20:14.264Z,9.80
2019-01-29T05:21:14.272Z,9.20
2019-01-29T05:22:14.278Z,8.60
2019-01-29T05:23:14.292Z,9.10
2019-01-29T05:24:14.294Z,9.10
2019-01-29T05:25:14.312Z,8.60
2019-01-29T05:26:14.315Z,9.50
2019-01-29T05:27:14.317Z,9.10
2019-01-29T05:28:14.327Z,9.70
2019-01-29T05:29:14.340Z,9.40
2019-01-29T05:30:14.348Z,9.80
2019-01-29T05:31:14.353Z,9.80
2019-01-29T05:32:14.363Z,9.20
2019-01-29T05:33:14.371Z,9.80
2019-01-29T05:34:14.394Z,8.80
2019-01-29T05:35:14.389Z,9.50
2019-01-29T05:36:14.401Z,9.30
2019-01-29T05:37:14.405Z,9.00
2019-01-29T05:38:14.417Z,9.50
2019-01-29T05:39:14.441Z,10.30
2019-01-29T05:40:14.428Z,9.20
2019-01-29T05:41:14.443Z,9.40
2019-01-29T05:42:14.446Z,9.10
2019-01-29T05:43:14.456Z,9.30
2019-01-29T05:44:14.470Z,9.10
2019-01-29T05:45:14.469Z,8.90
2019-01-29T05:46:14.485Z,9.40
2019-01-29T05:47:14.500Z,8.90
2019-01-29T05:48:14.502Z,9.20
2019-01-29T05:49:14.504Z,9.50
2019-01-29T05:50:14.514Z,9.40
2019-01-29T05:51:14.542Z,10.00
2019-01-29T05:52:14.534Z,9.20
2019-01-29T05:53:14.542Z,9.40
2019-01-29T05:54:16.323Z,9.70
2019-01-29T05:55:14.562Z,9.40
2019-01-29T05:56:14.567Z,8.80
2019-01-29T05:57:14.574Z,9.30
2019-01-29T05:58:14.588Z,9.60
2019-01-29T05:59:14.649Z,9.40
2019-01-29T06:00:14.606Z,9.10
2019-01-29T06:01:14.607Z,9.40
2019-01-29T06:02:14.611Z,8.50
2019-01-29T06:03:14.623Z,9.30
2019-01-29T06:04:14.659Z,10.10
2019-01-29T06:05:14.640Z,9.40
2019-01-29T06:06:14.647Z,10.10
2019-01-29T06:07:14.660Z,9.60
2019-01-29T06:08:14.665Z,10.40
2019-01-29T06:09:14.673Z,10.50
2019-01-29T06:10:14.690Z,10.50
2019-01-29T06:11:14.693Z,10.20
2019-01-29T06:12:14.718Z,11.20
2019-01-29T06:13:14.709Z,11.00
2019-01-29T06:14:14.713Z,11.20
2019-01-29T06:15:14.729Z,11.70
2019-01-29T06:16:14.731Z,12.10
2019-01-29T06:17:14.742Z,11.40
2019-01-29T06:18:14.747Z,11.60
2019-01-29T06:19:14.765Z,11.90
2019-01-29T06:20:14.763Z,12.20
2019-01-29T06:21:14.775Z,12.60
2019-01-29T06:22:14.781Z,12.50
2019-01-29T06:23:14.804Z,12.40
2019-01-29T06:24:14.806Z,13.00
2019-01-29T06:25:14.813Z,13.00
2019-01-29T06:26:14.851Z,13.10
2019-01-29T06:27:14.826Z,13.10
2019-01-29T06:28:14.855Z,12.60
2019-01-29T06:29:14.846Z,13.20
2019-01-29T06:30:14.843Z,13.70
2019-01-29T06:31:14.855Z,12.90
2019-01-29T06:32:14.892Z,13.10
2019-01-29T06:33:14.872Z,13.80
2019-01-29T06:34:14.879Z,13.50
2019-01-29T06:35:14.890Z,14.00
2019-01-29T06:36:14.895Z,14.30
2019-01-29T06:37:14.906Z,13.60
2019-01-29T06:38:14.912Z,14.70
2019-01-29T06:39:14.927Z,14.60
2019-01-29T06:40:14.934Z,14.90
2019-01-29T06:41:14.937Z,13.70
2019-01-29T06:42:14.948Z,14.20
2019-01-29T06:43:14.954Z,14.50
2019-01-29T06:44:15.006Z,14.30
2019-01-29T06:45:14.970Z,14.00
2019-01-29T06:46:14.977Z,13.80
2019-01-29T06:47:14.986Z,15.00
2019-01-29T06:48:14.993Z,14.20
2019-01-29T06:49:15.004Z,14.80
2019-01-29T06:50:15.012Z,14.60
2019-01-29T06:51:15.022Z,15.30
2019-01-29T06:52:15.028Z,13.70
2019-01-29T06:53:15.039Z,14.60
2019-01-29T06:54:15.057Z,15.60
2019-01-29T06:55:15.053Z,15.70
2019-01-29T06:56:15.088Z,16.10
2019-01-29T06:57:15.095Z,15.60
2019-01-29T06:58:15.077Z,16.60
2019-01-29T06:59:15.086Z,15.30
2019-01-29T07:00:15.096Z,15.00
2019-01-29T07:01:15.107Z,16.10
2019-01-29T07:02:15.111Z,15.20
2019-01-29T07:03:15.120Z,15.90
2019-01-29T07:04:15.130Z,15.80
2019-01-29T07:05:15.141Z,16.20
2019-01-29T07:06:15.146Z,16.50
2019-01-29T07:07:15.150Z,15.50
2019-01-29T07:08:15.159Z,16.70
2019-01-29T07:09:15.172Z,15.80
2019-01-29T07:10:15.182Z,16.00
2019-01-29T07:11:15.187Z,16.10
2019-01-29T07:12:15.195Z,15.60
2019-01-29T07:13:15.231Z,16.90
2019-01-29T07:14:15.211Z,15.70
2019-01-29T07:15:15.241Z,15.90
2019-01-29T07:16:15.237Z,15.40
2019-01-29T07:17:15.237Z,16.90
2019-01-29T07:18:15.261Z,16.90
2019-01-29T07:19:15.254Z,17.80
2019-01-29T07:20:15.260Z,17.80
2019-01-29T07:21:15.270Z,67.00
2019-01-29T07:22:15.276Z,20.20
2019-01-29T07:23:15.298Z,16.60
2019-01-29T07:24:15.295Z,16.90
2019-01-29T07:25:15.322Z,16.20
2019-01-29T07:26:15.314Z,16.90
2019-01-29T07:27:15.349Z,16.60
2019-01-29T07:28:15.342Z,16.10
2019-01-29T07:29:15.341Z,16.60
2019-01-29T07:30:15.346Z,15.80
2019-01-29T07:31:15.356Z,16.30
2019-01-29T07:32:15.389Z,17.00
2019-01-29T07:33:15.380Z,15.90
2019-01-29T07:34:15.414Z,15.70
2019-01-29T07:35:15.388Z,13.90
2019-01-29T07:36:15.423Z,13.80
2019-01-29T07:37:21.863Z,15.00
2019-01-29T07:38:15.421Z,14.40
2019-01-29T07:39:15.539Z,15.20
2019-01-29T07:40:15.552Z,16.80
2019-01-29T07:41:15.442Z,15.70
2019-01-29T07:42:15.450Z,16.00
2019-01-29T07:43:15.469Z,14.70
2019-01-29T07:44:15.480Z,15.70
2019-01-29T07:45:15.492Z,15.60
2019-01-29T07:46:15.498Z,14.50
2019-01-29T07:47:15.493Z,15.30
2019-01-29T07:48:15.526Z,15.10
2019-01-29T07:49:15.676Z,15.80
2019-01-29T07:50:15.524Z,15.30
2019-01-29T07:51:15.529Z,15.40
2019-01-29T07:52:15.535Z,14.90
2019-01-29T07:53:15.567Z,15.30
2019-01-29T07:54:15.556Z,15.50
2019-01-29T07:55:15.557Z,14.80
2019-01-29T07:56:15.570Z,14.20
2019-01-29T07:57:15.584Z,13.50
2019-01-29T07:58:15.599Z,13.90
2019-01-29T07:59:15.597Z,14.80
2019-01-29T08:00:15.610Z,14.00
2019-01-29T08:01:15.626Z,13.70
2019-01-29T08:02:15.619Z,13.50
2019-01-29T08:03:15.631Z,13.90
2019-01-29T08:04:15.637Z,13.30
2019-01-29T08:05:15.647Z,13.20
2019-01-29T08:06:15.655Z,14.00
2019-01-29T08:07:15.670Z,13.10
2019-01-29T08:08:15.679Z,12.90
2019-01-29T08:09:15.694Z,12.90
2019-01-29T08:10:15.737Z,13.00
2019-01-29T08:11:15.700Z,12.70
2019-01-29T08:12:15.719Z,12.20
2019-01-29T08:13:15.722Z,12.40
2019-01-29T08:14:16.030Z,13.00
2019-01-29T08:15:15.737Z,12.80
2019-01-29T08:16:15.776Z,13.20
2019-01-29T08:17:15.769Z,14.50
2019-01-29T08:18:15.763Z,12.80
2019-01-29T08:19:15.767Z,13.20
2019-01-29T08:20:15.778Z,13.60
2019-01-29T08:21:15.792Z,14.30
2019-01-29T08:22:15.797Z,14.30
2019-01-29T08:23:15.811Z,13.40
2019-01-29T08:24:15.827Z,14.20
2019-01-29T08:25:15.828Z,14.20
2019-01-29T08:26:15.830Z,15.20
2019-01-29T08:27:15.837Z,15.80
2019-01-29T08:28:15.844Z,15.20
2019-01-29T08:29:15.867Z,15.80
2019-01-29T08:30:15.861Z,17.60
2019-01-29T08:31:15.871Z,16.80
2019-01-29T08:32:15.878Z,16.50
2019-01-29T08:33:15.886Z,16.90
2019-01-29T08:34:15.899Z,16.00
2019-01-29T08:35:15.903Z,16.70
2019-01-29T08:36:15.916Z,16.20
2019-01-29T08:37:15.922Z,16.00
2019-01-29T08:38:15.929Z,16.30
2019-01-29T08:39:15.941Z,16.90
2019-01-29T08:40:15.949Z,16.00
2019-01-29T08:41:15.958Z,16.70
2019-01-29T08:42:15.986Z,16.70
2019-01-29T08:43:15.975Z,17.10
2019-01-29T08:44:15.995Z,16.50
2019-01-29T08:45:16.000Z,17.20
2019-01-29T08:46:16.006Z,17.20
2019-01-29T08:47:16.027Z,16.90
2019-01-29T08:48:16.022Z,17.50
2019-01-29T08:49:16.042Z,17.20
2019-01-29T08:50:16.042Z,18.00
2019-01-29T08:51:16.047Z,18.30
2019-01-29T08:52:16.065Z,18.60
2019-01-29T08:53:16.082Z,17.80
2019-01-29T08:54:16.080Z,17.80
2019-01-29T08:55:16.104Z,18.70
2019-01-29T08:56:16.096Z,18.70
2019-01-29T08:57:16.123Z,19.10
2019-01-29T08:58:16.167Z,19.10
2019-01-29T08:59:16.120Z,19.50
2019-01-29T09:00:16.135Z,20.20
2019-01-29T09:01:16.180Z,20.20
2019-01-29T09:02:16.451Z,22.80
2019-01-29T09:03:16.333Z,19.70
2019-01-29T09:04:16.164Z,21.00
2019-01-29T09:06:16.312Z,20.10
2019-01-29T09:07:16.189Z,19.60
2019-01-29T09:08:16.269Z,21.00
2019-01-29T09:09:16.209Z,20.50
2019-01-29T09:10:16.221Z,20.50
2019-01-29T09:11:16.230Z,21.30
2019-01-29T09:12:16.238Z,21.50
2019-01-29T09:13:16.244Z,21.40
2019-01-29T09:14:16.252Z,21.20
2019-01-29T09:15:16.272Z,21.40
2019-01-29T09:16:16.282Z,22.70
2019-01-29T09:17:16.283Z,22.60
2019-01-29T09:18:16.289Z,21.00
2019-01-29T09:19:16.297Z,21.20
2019-01-29T09:20:16.310Z,21.90
2019-01-29T09:21:16.341Z,21.60
2019-01-29T09:22:16.333Z,21.70
2019-01-29T09:23:16.337Z,21.80
2019-01-29T09:24:16.346Z,22.20
2019-01-29T09:25:20.848Z,22.00
2019-01-29T09:26:16.366Z,21.80
2019-01-29T09:27:16.374Z,22.30
2019-01-29T09:28:18.480Z,21.50
2019-01-29T09:29:17.828Z,22.70
2019-01-29T09:30:16.402Z,22.30
2019-01-29T09:31:16.410Z,22.90
2019-01-29T09:32:16.424Z,22.60
2019-01-29T09:33:16.443Z,22.10
2019-01-29T09:34:16.444Z,19.50
2019-01-29T09:35:16.453Z,20.90
2019-01-29T09:36:16.463Z,20.60
2019-01-29T09:37:16.474Z,21.90
2019-01-29T09:38:16.474Z,21.50
2019-01-29T09:39:16.487Z,21.90
2019-01-29T09:40:16.495Z,21.10
2019-01-29T09:41:16.505Z,22.00
2019-01-29T09:42:16.514Z,21.30
2019-01-29T09:43:16.536Z,21.00
2019-01-29T09:44:16.535Z,20.40
2019-01-29T09:45:16.541Z,19.90
2019-01-29T09:46:16.551Z,22.10
2019-01-29T09:47:16.562Z,22.00
2019-01-29T09:48:16.568Z,21.40
2019-01-29T09:49:16.578Z,22.40
2019-01-29T09:50:16.591Z,22.20
2019-01-29T09:51:16.600Z,21.80
2019-01-29T09:52:16.606Z,22.50
2019-01-29T09:53:16.619Z,21.20
2019-01-29T09:54:16.626Z,20.60
2019-01-29T09:55:16.638Z,20.30
2019-01-29T09:56:16.646Z,22.00
2019-01-29T09:57:16.654Z,22.90
2019-01-29T09:58:16.665Z,22.10
2019-01-29T09:59:16.675Z,21.70
2019-01-29T10:00:16.683Z,21.30
2019-01-29T10:01:16.694Z,22.00
2019-01-29T10:02:16.703Z,20.70
2019-01-29T10:03:16.717Z,22.10
2019-01-29T10:04:16.722Z,21.90
2019-01-29T10:05:16.750Z,22.30
2019-01-29T10:06:16.741Z,22.20
2019-01-29T10:07:16.757Z,22.60
2019-01-29T10:08:17.908Z,21.50
2019-01-29T10:09:16.770Z,22.70
2019-01-29T10:10:16.787Z,21.90
2019-01-29T10:11:16.794Z,21.90
2019-01-29T10:12:16.799Z,22.60
2019-01-29T10:13:16.806Z,22.70
2019-01-29T10:14:16.815Z,21.80
2019-01-29T10:15:16.828Z,22.80
2019-01-29T10:16:16.838Z,21.80
2019-01-29T10:17:16.848Z,21.70
2019-01-29T10:18:16.856Z,22.40
2019-01-29T10:19:16.863Z,23.00
2019-01-29T10:20:16.878Z,23.10
2019-01-29T10:21:16.903Z,23.40
2019-01-29T10:22:16.898Z,22.20
2019-01-29T10:23:16.901Z,22.60
2019-01-29T10:24:16.913Z,22.40
2019-01-29T10:25:18.222Z,22.50
2019-01-29T10:26:17.701Z,23.70
2019-01-29T10:27:17.484Z,24.10
2019-01-29T10:28:16.954Z,22.80
2019-01-29T10:29:16.962Z,24.20
2019-01-29T10:30:16.979Z,23.10
2019-01-29T10:32:17.003Z,22.30
2019-01-29T10:33:17.012Z,24.20
2019-01-29T10:34:17.020Z,22.80
2019-01-29T10:35:17.032Z,23.20
2019-01-29T10:36:17.033Z,23.80
2019-01-29T10:37:17.050Z,24.00
2019-01-29T10:38:17.055Z,23.70
2019-01-29T10:39:17.063Z,23.60
2019-01-29T10:40:17.071Z,23.50
2019-01-29T10:41:17.083Z,24.10
2019-01-29T10:42:17.394Z,23.10
2019-01-29T10:43:17.150Z,23.70
2019-01-29T10:44:17.209Z,24.00
2019-01-29T10:45:17.118Z,23.60
2019-01-29T10:46:17.143Z,24.30
2019-01-29T10:47:17.707Z,24.40
2019-01-29T10:48:17.211Z,24.50
2019-01-29T10:49:17.176Z,24.70
2019-01-29T10:50:17.168Z,25.20
2019-01-29T10:51:17.182Z,24.80
2019-01-29T10:52:17.189Z,24.70
2019-01-29T10:53:17.199Z,24.90
2019-01-29T10:54:17.217Z,25.20
2019-01-29T10:55:17.227Z,26.40
2019-01-29T10:56:17.262Z,26.60
2019-01-29T10:57:17.241Z,24.60
2019-01-29T10:58:17.249Z,25.10
2019-01-29T10:59:17.267Z,25.90
2019-01-29T11:00:17.267Z,24.80
2019-01-29T11:01:17.284Z,25.70
2019-01-29T11:02:17.309Z,25.70
2019-01-29T11:03:17.347Z,25.70
2019-01-29T11:04:17.351Z,24.80
2019-01-29T11:05:17.323Z,25.70
2019-01-29T11:06:17.334Z,26.80
2019-01-29T11:07:17.349Z,26.60
2019-01-29T11:08:17.356Z,26.90
2019-01-29T11:09:25.172Z,26.70
2019-01-29T11:10:17.454Z,27.10
2019-01-29T11:11:17.380Z,27.80
2019-01-29T11:12:17.403Z,28.00
2019-01-29T11:13:17.431Z,28.70
2019-01-29T11:14:17.418Z,27.50
2019-01-29T11:15:17.438Z,27.80
2019-01-29T11:16:17.490Z,28.50
2019-01-29T11:17:17.472Z,28.10
2019-01-29T11:18:17.517Z,27.30
2019-01-29T11:19:17.459Z,28.50
2019-01-29T11:20:17.486Z,28.20
2019-01-29T11:21:17.477Z,29.50
2019-01-29T11:22:17.488Z,28.80
2019-01-29T11:23:17.496Z,29.20
2019-01-29T11:24:17.511Z,28.40
2019-01-29T11:25:17.517Z,27.30
2019-01-29T11:26:17.526Z,28.90
2019-01-29T11:27:17.543Z,28.90
2019-01-29T11:28:17.549Z,28.50
2019-01-29T11:29:17.864Z,29.20
2019-01-29T11:30:17.581Z,27.80
2019-01-29T11:31:17.591Z,30.00
2019-01-29T11:32:17.587Z,28.50
2019-01-29T11:33:17.601Z,28.40
2019-01-29T11:34:17.607Z,29.30
2019-01-29T11:35:17.618Z,29.20
2019-01-29T11:36:17.630Z,30.30
2019-01-29T11:37:17.641Z,29.60
2019-01-29T11:38:17.662Z,30.00
2019-01-29T11:39:17.672Z,29.60
2019-01-29T11:40:17.669Z,28.50
2019-01-29T11:41:17.729Z,29.50
2019-01-29T11:42:17.691Z,28.20
2019-01-29T11:43:17.702Z,28.30
2019-01-29T11:44:17.713Z,28.10
2019-01-29T11:45:17.722Z,28.00
2019-01-29T11:46:17.745Z,25.10
2019-01-29T11:47:17.744Z,25.20
2019-01-29T11:48:17.754Z,26.70
2019-01-29T11:49:17.767Z,25.10
2019-01-29T11:50:17.773Z,25.30
2019-01-29T11:51:17.783Z,23.90
2019-01-29T11:52:17.794Z,24.20
2019-01-29T11:53:17.802Z,24.20
2019-01-29T11:54:17.814Z,26.00
2019-01-29T11:55:17.827Z,23.80
2019-01-29T11:56:17.845Z,22.70
2019-01-29T11:57:17.850Z,22.30
2019-01-29T11:58:18.141Z,23.30
2019-01-29T11:59:17.870Z,23.00
2019-01-29T12:00:17.888Z,22.30
2019-01-29T12:01:17.886Z,22.10
2019-01-29T12:02:17.895Z,22.40
2019-01-29T12:03:18.377Z,20.60
2019-01-29T12:04:17.914Z,21.10
2019-01-29T12:05:17.940Z,21.10
2019-01-29T12:06:17.942Z,22.30
2019-01-29T12:07:19.533Z,21.20
2019-01-29T12:08:17.975Z,22.40
2019-01-29T12:09:17.992Z,21.40
2019-01-29T12:10:17.989Z,20.90
2019-01-29T12:11:17.988Z,18.90
2019-01-29T12:12:18.023Z,20.30
2019-01-29T12:13:18.012Z,21.10
2019-01-29T12:14:18.331Z,20.80
2019-01-29T12:15:18.052Z,21.30
2019-01-29T12:16:19.549Z,20.20
2019-01-29T12:17:18.051Z,20.60
2019-01-29T12:18:18.061Z,19.40
2019-01-29T12:19:18.073Z,17.60
2019-01-29T12:20:18.087Z,19.10
2019-01-29T12:21:18.091Z,18.30
2019-01-29T12:22:18.102Z,17.70
2019-01-29T12:23:18.114Z,17.40
2019-01-29T12:24:18.122Z,19.20
2019-01-29T12:25:18.148Z,19.10
2019-01-29T12:26:18.163Z,18.90
2019-01-29T12:27:18.234Z,19.90
2019-01-29T12:28:18.164Z,20.50
2019-01-29T12:29:18.175Z,19.70
2019-01-29T12:30:18.189Z,20.40
2019-01-29T12:31:18.200Z,20.00
2019-01-29T12:32:18.209Z,19.80
2019-01-29T12:33:18.219Z,19.70
2019-01-29T12:34:18.232Z,18.60
2019-01-29T12:35:18.241Z,18.70
2019-01-29T12:36:18.250Z,19.00
2019-01-29T12:37:18.262Z,18.50
2019-01-29T12:38:18.269Z,19.60
2019-01-29T12:39:18.683Z,20.70
2019-01-29T12:40:18.343Z,18.80
2019-01-29T12:41:18.306Z,19.00
2019-01-29T12:42:18.311Z,19.10
2019-01-29T12:43:18.324Z,19.10
2019-01-29T12:44:18.333Z,18.70
2019-01-29T12:45:18.344Z,18.50
2019-01-29T12:46:18.386Z,19.60
2019-01-29T12:47:18.366Z,19.50
2019-01-29T12:48:18.377Z,18.80
2019-01-29T12:49:18.385Z,19.60
2019-01-29T12:50:18.400Z,19.10
2019-01-29T12:51:18.408Z,24.80
2019-01-29T12:52:18.420Z,20.50
2019-01-29T12:53:18.428Z,23.40
2019-01-29T12:54:18.440Z,21.50
2019-01-29T12:55:18.450Z,20.70
2019-01-29T12:56:21.482Z,18.70
2019-01-29T12:57:18.474Z,19.90
2019-01-29T12:58:18.484Z,18.70
2019-01-29T12:59:18.494Z,16.80
2019-01-29T13:00:18.503Z,17.00
2019-01-29T13:01:18.515Z,17.30
2019-01-29T13:02:18.524Z,18.10
2019-01-29T13:03:18.542Z,17.60
2019-01-29T13:04:18.547Z,18.90
2019-01-29T13:05:18.557Z,17.30
2019-01-29T13:06:18.571Z,17.70